Waterloo Regional Airport
KALO : now visible

Airfield :











YOU CAN JOIN US ON...

 
LOGIN :

Register | Disclaimer

   EN    FR    IT 

 









Legend :    VFR   Marginal VFR   IFR   Intensive IFR   Very Intensive IFR
Visi :
Ceiling :
>= 8 km
>= 3000ft
5 to 8 km
1000 to 3000 ft
1500m to 5 km
500 to 1000 ft
800 to 1500m
200 to 500 ft
< 800m
< 200 ft
Symbols :   Thunderstorms  Fog  Heavy snow  Heavy precipitations  Wind > 20 kt







- Airport Elevation : 873 ft
- IATA code : ALO


KALO - Waterloo Regional

CURRENT METAR :
  • 191954Z 35019G27KT 10SM CLR 17/M01 A2998 RMK AO2 PK WND 36035/1943 SLP154 T01721011

EXPIRED METARs :
  • 191854Z 32017G24KT 10SM CLR 16/M01 A2999 RMK AO2 PK WND 34028/1804 SLP156 T01611006
  • 191754Z 35013G25KT 10SM CLR 15/M01 A3000 RMK AO2 PK WND 01026/1659 SLP162 T01501011 10156 20039 58005

TAF KALO
Valid from the 19 at 18:00 until the 20 at 18:00 UTC


191724Z 1918/2018 01016G25KT P6SM SKC
FM200200 35005KT P6SM SKC
FM201600 22005KT P6SM SKC
KZAU FIR / North America



MET'MAP, your aeronautical weather chart ! - Copyright ORBIFLY December 2007 - Disclaimer

ORBIFLY MET'MAP TEAM :

Programming & Development : Alexandra Zaïnal
Concept & Development : Baudouin d'Aumeries
Co-Development & Prog : Marc-Olivier Méhu
Technical & hardware support : Manuel Goepfert

Contact : metmap@orbifly.com




SOURCES & CREDITS :

   NOAA       Earth
Advisory